createdAt,value
2022-08-03T00:01:52.076Z,72.97
2022-08-03T00:04:18.565Z,73.97
2022-08-03T00:06:57.480Z,74.05
2022-08-03T00:09:23.848Z,73.22
2022-08-03T00:11:50.221Z,73.51
2022-08-03T00:14:17.729Z,74.58
2022-08-03T00:16:44.071Z,74.56
2022-08-03T00:19:10.446Z,76.44
2022-08-03T00:21:37.353Z,76.59
2022-08-03T00:24:03.968Z,77.40
2022-08-03T00:26:31.634Z,76.85
2022-08-03T00:28:58.051Z,76.98
2022-08-03T00:31:40.093Z,76.52
2022-08-03T00:34:10.900Z,77.32
2022-08-03T00:36:38.886Z,78.09
2022-08-03T00:39:05.282Z,77.83
2022-08-03T00:41:31.643Z,77.72
2022-08-03T00:43:58.031Z,78.50
2022-08-03T00:46:24.374Z,77.54
2022-08-03T00:48:51.455Z,77.32
2022-08-03T00:51:19.791Z,78.13
2022-08-03T00:53:46.336Z,78.42
2022-08-03T00:56:16.726Z,78.36
2022-08-03T00:58:46.973Z,79.02
2022-08-03T01:01:15.348Z,78.74
2022-08-03T01:03:41.944Z,78.26
2022-08-03T01:06:25.344Z,78.70
2022-08-03T01:09:00.918Z,77.73
2022-08-03T01:12:01.051Z,76.95
2022-08-03T01:14:32.426Z,78.43
2022-08-03T01:17:09.730Z,77.49
2022-08-03T01:19:51.011Z,77.47
2022-08-03T01:22:38.714Z,78.26
2022-08-03T01:25:36.311Z,77.96
2022-08-03T01:28:23.471Z,77.67
2022-08-03T01:30:53.216Z,77.67
2022-08-03T01:33:24.441Z,77.77
2022-08-03T01:35:57.203Z,77.06
2022-08-03T01:38:34.139Z,77.67
2022-08-03T01:41:10.775Z,77.90
2022-08-03T01:44:27.005Z,78.00
2022-08-03T01:46:28.521Z,77.97
2022-08-03T01:48:56.066Z,78.11
2022-08-03T01:51:22.745Z,78.85
2022-08-03T01:53:51.137Z,78.94
2022-08-03T01:56:20.054Z,79.67
2022-08-03T01:58:49.652Z,80.53
2022-08-03T02:01:18.676Z,81.10
2022-08-03T02:03:59.930Z,81.79
2022-08-03T02:07:00.761Z,83.13
2022-08-03T02:09:15.206Z,83.42
2022-08-03T02:11:43.776Z,82.71
2022-08-03T02:14:10.792Z,83.61
2022-08-03T02:16:37.343Z,83.72
2022-08-03T02:19:07.182Z,83.75
2022-08-03T02:21:57.250Z,84.86
2022-08-03T02:24:22.512Z,84.75
2022-08-03T02:26:51.504Z,84.45
2022-08-03T02:29:22.174Z,84.41
2022-08-03T02:32:10.389Z,84.25
2022-08-03T02:34:38.310Z,84.05
2022-08-03T02:37:06.904Z,84.27
2022-08-03T02:39:35.553Z,84.55
2022-08-03T02:42:03.268Z,85.37
2022-08-03T02:44:32.745Z,85.28
2022-08-03T02:47:04.135Z,85.67
2022-08-03T02:49:49.561Z,84.75
2022-08-03T02:52:21.302Z,84.95
2022-08-03T02:54:50.957Z,85.66
2022-08-03T02:57:19.305Z,85.96
2022-08-03T02:59:46.347Z,86.11
2022-08-03T03:02:15.657Z,87.18
2022-08-03T03:04:45.085Z,86.78
2022-08-03T03:07:31.325Z,87.04
2022-08-03T03:10:08.284Z,87.64
2022-08-03T03:12:36.989Z,87.94
2022-08-03T03:15:06.455Z,89.24
2022-08-03T03:17:34.766Z,89.22
2022-08-03T03:20:02.585Z,89.22
2022-08-03T03:22:33.423Z,89.03
2022-08-03T03:25:00.544Z,89.72
2022-08-03T03:27:27.231Z,89.47
2022-08-03T03:29:54.016Z,89.56
2022-08-03T03:32:20.477Z,90.32
2022-08-03T03:34:47.893Z,90.77
2022-08-03T03:37:14.262Z,89.88
2022-08-03T03:39:40.660Z,89.70
2022-08-03T03:42:07.270Z,90.20
2022-08-03T03:44:33.732Z,89.08
2022-08-03T03:47:00.253Z,88.82
2022-08-03T03:49:26.898Z,87.59
2022-08-03T03:51:54.935Z,86.19
2022-08-03T03:54:21.573Z,87.21
2022-08-03T03:56:48.144Z,87.08
2022-08-03T03:59:14.617Z,88.48
2022-08-03T04:01:41.057Z,89.35
2022-08-03T04:04:26.033Z,89.35
2022-08-03T04:07:10.710Z,89.51
2022-08-03T04:09:59.231Z,90.84
2022-08-03T04:12:37.693Z,91.63
2022-08-03T04:15:20.682Z,90.83
2022-08-03T04:17:50.354Z,90.32
2022-08-03T04:20:20.492Z,90.89
2022-08-03T04:22:51.197Z,89.96
2022-08-03T04:25:19.395Z,90.79
2022-08-03T04:28:19.707Z,90.54
2022-08-03T04:30:38.618Z,90.12
2022-08-03T04:33:06.487Z,89.56
2022-08-03T04:36:01.258Z,89.54
2022-08-03T04:38:24.745Z,89.52
2022-08-03T04:40:52.829Z,88.93
2022-08-03T04:43:21.109Z,89.21
2022-08-03T04:45:49.429Z,88.59
2022-08-03T04:48:16.112Z,89.09
2022-08-03T04:50:43.156Z,87.38
2022-08-03T04:53:09.779Z,86.68
2022-08-03T04:55:36.429Z,85.83
2022-08-03T04:58:03.865Z,85.54
2022-08-03T05:00:30.670Z,85.92
2022-08-03T05:02:57.470Z,84.57
2022-08-03T05:05:24.394Z,84.63
2022-08-03T05:07:51.176Z,83.31
2022-08-03T05:10:17.843Z,81.91
2022-08-03T05:12:45.723Z,81.10
2022-08-03T05:15:12.854Z,84.33
2022-08-03T05:17:39.341Z,83.36
2022-08-03T05:20:06.501Z,84.84
2022-08-03T05:22:32.966Z,82.44
2022-08-03T05:25:01.185Z,81.82
2022-08-03T05:27:27.565Z,79.92
2022-08-03T05:29:54.033Z,81.99
2022-08-03T05:32:20.728Z,80.26
2022-08-03T05:34:47.288Z,78.97
2022-08-03T05:37:13.678Z,77.58
2022-08-03T05:39:40.140Z,78.35
2022-08-03T05:42:06.576Z,79.85
2022-08-03T05:44:32.956Z,78.71
2022-08-03T05:46:59.865Z,77.89
2022-08-03T05:49:26.364Z,76.64
2022-08-03T05:52:00.142Z,76.79
2022-08-03T05:54:57.257Z,76.64
2022-08-03T05:57:25.470Z,75.87
2022-08-03T05:59:54.658Z,74.92
2022-08-03T06:02:26.455Z,73.31
2022-08-03T06:04:52.874Z,72.88
2022-08-03T06:07:19.232Z,73.64
2022-08-03T06:10:37.354Z,72.89
2022-08-03T06:12:32.083Z,71.96
2022-08-03T06:14:58.488Z,71.63
2022-08-03T06:17:24.868Z,69.74
2022-08-03T06:19:53.745Z,69.48
2022-08-03T06:22:20.628Z,68.67
2022-08-03T06:24:53.358Z,68.35
2022-08-03T06:27:20.436Z,68.10
2022-08-03T06:29:57.779Z,66.89
2022-08-03T06:32:24.138Z,66.32
2022-08-03T06:34:51.321Z,65.63
2022-08-03T06:37:18.434Z,64.29
2022-08-03T06:39:44.772Z,63.89
2022-08-03T06:42:13.147Z,64.97
2022-08-03T06:44:39.496Z,64.54
2022-08-03T06:47:05.900Z,62.69
2022-08-03T06:49:32.337Z,62.47
2022-08-03T06:52:04.631Z,60.15
2022-08-03T06:54:33.516Z,60.62
2022-08-03T06:56:59.979Z,60.48
2022-08-03T07:00:07.694Z,58.79
2022-08-03T07:02:19.315Z,57.71
2022-08-03T07:04:48.726Z,57.74
2022-08-03T07:07:15.223Z,56.78
2022-08-03T07:09:41.788Z,56.47
2022-08-03T07:12:08.529Z,55.29
2022-08-03T07:14:35.002Z,55.08
2022-08-03T07:17:01.411Z,54.67
2022-08-03T07:19:31.270Z,55.24
2022-08-03T07:21:58.925Z,55.42
2022-08-03T07:24:29.101Z,56.22
2022-08-03T07:26:55.515Z,54.35
2022-08-03T07:29:21.845Z,52.37
2022-08-03T07:31:48.234Z,52.29
2022-08-03T07:34:14.856Z,52.94
2022-08-03T07:36:41.240Z,53.16
2022-08-03T07:39:16.537Z,52.68
2022-08-03T07:41:44.961Z,51.12
2022-08-03T07:44:11.448Z,50.92
2022-08-03T07:46:37.884Z,49.10
2022-08-03T07:49:04.515Z,49.82
2022-08-03T07:51:30.933Z,50.00
2022-08-03T07:53:57.708Z,50.22
2022-08-03T07:56:28.018Z,48.33
2022-08-03T07:58:54.892Z,46.99
2022-08-03T08:01:21.903Z,46.64
2022-08-03T08:03:49.924Z,46.29
2022-08-03T08:06:21.398Z,46.10
2022-08-03T08:08:48.236Z,45.71
2022-08-03T08:11:14.907Z,45.53
2022-08-03T08:13:41.503Z,45.83
2022-08-03T08:16:07.885Z,43.09
2022-08-03T08:18:34.467Z,43.36
2022-08-03T08:21:03.091Z,43.63
2022-08-03T08:23:44.149Z,43.82
2022-08-03T08:26:11.677Z,43.88
2022-08-03T08:28:38.145Z,43.23
2022-08-03T08:31:04.791Z,43.13
2022-08-03T08:34:02.576Z,41.61
2022-08-03T08:36:17.764Z,40.74
2022-08-03T08:38:45.284Z,40.79
2022-08-03T08:41:13.786Z,40.30
2022-08-03T08:43:40.720Z,41.05
2022-08-03T08:46:08.420Z,38.54
2022-08-03T08:48:39.524Z,39.02
2022-08-03T08:51:06.579Z,37.98
2022-08-03T08:53:37.293Z,39.74
2022-08-03T08:56:05.294Z,39.25
2022-08-03T08:58:37.627Z,37.33
2022-08-03T09:01:05.256Z,37.84
2022-08-03T09:03:34.085Z,36.54
2022-08-03T09:06:02.099Z,36.92
2022-08-03T09:08:29.991Z,38.24
2022-08-03T09:10:56.477Z,37.31
2022-08-03T09:13:22.889Z,37.47
2022-08-03T09:16:08.389Z,36.79
2022-08-03T09:18:34.784Z,36.07
2022-08-03T09:21:33.484Z,34.89
2022-08-03T09:24:04.302Z,34.58
2022-08-03T09:26:36.491Z,35.27
2022-08-03T09:29:13.863Z,34.94
2022-08-03T09:31:46.484Z,33.60
2022-08-03T09:34:16.317Z,33.96
2022-08-03T09:36:50.485Z,32.89
2022-08-03T09:39:18.116Z,32.70
2022-08-03T09:42:04.991Z,33.03
2022-08-03T09:44:39.077Z,33.56
2022-08-03T09:47:06.241Z,31.95
2022-08-03T09:49:32.917Z,30.39
2022-08-03T09:52:33.681Z,30.34
2022-08-03T09:54:59.681Z,30.81
2022-08-03T09:57:27.142Z,31.35
2022-08-03T10:00:04.468Z,30.98
2022-08-03T10:02:32.751Z,31.04
2022-08-03T10:04:59.094Z,30.52
2022-08-03T10:07:25.527Z,32.03
2022-08-03T10:10:30.109Z,31.35
2022-08-03T10:12:49.007Z,30.82
2022-08-03T10:16:22.448Z,30.65
2022-08-03T10:18:02.181Z,30.96
2022-08-03T10:20:28.612Z,31.50
2022-08-03T10:22:55.871Z,31.16
2022-08-03T10:25:22.896Z,31.22
2022-08-03T10:28:04.385Z,30.62
2022-08-03T10:30:32.904Z,30.93
2022-08-03T10:33:51.531Z,30.48
2022-08-03T10:36:01.725Z,30.04
2022-08-03T10:38:43.209Z,30.65
2022-08-03T10:41:10.875Z,29.39
2022-08-03T10:43:52.956Z,28.80
2022-08-03T10:46:21.234Z,29.05
2022-08-03T10:48:49.744Z,27.98
2022-08-03T10:51:17.174Z,28.90
2022-08-03T10:53:50.158Z,29.84
2022-08-03T10:56:52.510Z,28.91
2022-08-03T10:59:45.895Z,29.33
2022-08-03T11:02:14.185Z,27.87
2022-08-03T11:04:41.441Z,28.51
2022-08-03T11:07:23.454Z,27.88
2022-08-03T11:09:55.690Z,27.44
2022-08-03T11:12:33.655Z,28.08
2022-08-03T11:15:04.775Z,28.64
2022-08-03T11:17:32.684Z,27.06
2022-08-03T11:19:59.453Z,27.43
2022-08-03T11:22:46.085Z,27.01
2022-08-03T11:25:53.078Z,27.37
2022-08-03T11:28:29.334Z,27.42
2022-08-03T11:30:57.200Z,26.82
2022-08-03T11:33:30.799Z,27.03
2022-08-03T11:36:01.949Z,28.26
2022-08-03T11:38:28.374Z,28.31
2022-08-03T11:40:55.087Z,26.38
2022-08-03T11:43:31.634Z,27.76
2022-08-03T11:45:59.530Z,27.07
2022-08-03T11:48:39.417Z,27.49
2022-08-03T11:51:08.089Z,27.42
2022-08-03T11:53:42.002Z,26.75
2022-08-03T11:56:12.694Z,25.30
2022-08-03T11:59:10.817Z,25.14
2022-08-03T12:01:37.444Z,27.67
2022-08-03T12:04:05.669Z,26.23
2022-08-03T12:06:52.117Z,27.65
2022-08-03T12:09:18.497Z,26.37
2022-08-03T12:11:50.874Z,27.30
2022-08-03T12:14:48.638Z,25.72
2022-08-03T12:17:14.599Z,25.67
2022-08-03T12:19:44.617Z,26.14
2022-08-03T12:22:10.973Z,26.02
2022-08-03T12:24:46.830Z,27.20
2022-08-03T12:27:23.552Z,26.08
2022-08-03T12:29:58.730Z,26.80
2022-08-03T12:32:26.399Z,26.77
2022-08-03T12:34:52.981Z,27.54
2022-08-03T12:37:23.603Z,27.48
2022-08-03T12:40:02.854Z,27.15
2022-08-03T12:42:36.243Z,27.08
2022-08-03T12:45:19.495Z,26.16
2022-08-03T12:47:57.164Z,26.67
2022-08-03T12:50:31.794Z,27.87
2022-08-03T12:52:59.710Z,27.35
2022-08-03T12:55:56.734Z,25.86
2022-08-03T12:58:34.362Z,25.01
2022-08-03T13:01:10.011Z,25.10
2022-08-03T13:03:42.362Z,24.88
2022-08-03T13:06:18.648Z,25.46
2022-08-03T13:08:47.778Z,26.34
2022-08-03T13:11:55.854Z,25.98
2022-08-03T13:14:13.526Z,25.20
2022-08-03T13:16:45.863Z,25.12
2022-08-03T13:19:15.610Z,24.40
2022-08-03T13:22:01.865Z,24.30
2022-08-03T13:24:29.624Z,25.35
2022-08-03T13:26:57.048Z,25.97
2022-08-03T13:29:23.485Z,24.44
2022-08-03T13:31:50.592Z,25.35
2022-08-03T13:34:23.093Z,24.42
2022-08-03T13:37:08.354Z,26.16
2022-08-03T13:39:35.691Z,25.49
2022-08-03T13:42:22.044Z,24.21
2022-08-03T13:44:48.416Z,23.50
2022-08-03T13:47:14.840Z,23.00
2022-08-03T13:49:41.215Z,23.47
2022-08-03T13:52:07.757Z,23.57
2022-08-03T13:54:34.175Z,24.71
2022-08-03T13:57:00.798Z,23.88
2022-08-03T13:59:47.121Z,25.13
2022-08-03T14:02:13.527Z,25.95
2022-08-03T14:04:40.341Z,24.67
2022-08-03T14:07:06.786Z,25.05
2022-08-03T14:09:33.222Z,24.88
2022-08-03T14:12:07.204Z,24.70
2022-08-03T14:14:35.131Z,24.09
2022-08-03T14:17:01.492Z,24.46
2022-08-03T14:19:28.872Z,25.97
2022-08-03T14:22:06.151Z,24.27
2022-08-03T14:24:33.124Z,25.42
2022-08-03T14:27:07.118Z,24.98
2022-08-03T14:29:35.496Z,23.54
2022-08-03T14:32:11.399Z,23.14
2022-08-03T14:34:39.314Z,25.54
2022-08-03T14:37:05.843Z,23.79
2022-08-03T14:42:20.161Z,25.44
2022-08-03T14:44:46.665Z,24.92
2022-08-03T14:47:14.149Z,24.84
2022-08-03T14:50:35.017Z,25.15
2022-08-03T14:52:27.090Z,24.49
2022-08-03T14:54:53.556Z,25.73
2022-08-03T14:57:20.104Z,25.62
2022-08-03T14:59:56.453Z,25.38
2022-08-03T15:02:25.420Z,24.89
2022-08-03T15:04:52.601Z,25.00
2022-08-03T15:07:20.394Z,24.52
2022-08-03T15:09:47.209Z,24.58
2022-08-03T15:12:13.608Z,24.23
2022-08-03T15:14:40.088Z,24.84
2022-08-03T15:17:07.009Z,24.62
2022-08-03T15:20:03.516Z,24.32
2022-08-03T15:22:20.621Z,24.42
2022-08-03T15:24:51.246Z,24.41
2022-08-03T15:27:17.855Z,22.25
2022-08-03T15:30:08.786Z,23.52
2022-08-03T15:32:31.280Z,23.94
2022-08-03T15:34:57.671Z,24.03
2022-08-03T15:37:25.648Z,24.35
2022-08-03T15:39:58.438Z,23.93
2022-08-03T15:42:26.691Z,24.27
2022-08-03T15:44:53.818Z,23.55
2022-08-03T15:47:21.459Z,23.65
2022-08-03T15:49:48.020Z,25.16
2022-08-03T15:52:14.385Z,24.02
2022-08-03T15:54:40.767Z,24.41
2022-08-03T15:57:07.230Z,24.37
2022-08-03T15:59:33.701Z,24.01
2022-08-03T16:02:00.342Z,23.16
2022-08-03T16:04:26.907Z,24.07
2022-08-03T16:06:53.535Z,24.20
2022-08-03T16:09:23.046Z,25.39
2022-08-03T16:12:06.510Z,24.90
2022-08-03T16:14:51.735Z,25.78
2022-08-03T16:17:19.702Z,24.34
2022-08-03T16:19:46.341Z,25.47
2022-08-03T16:22:12.884Z,26.78
2022-08-03T16:24:40.802Z,25.42
2022-08-03T16:27:07.849Z,25.76
2022-08-03T16:29:44.551Z,24.31
2022-08-03T16:32:11.416Z,24.69
2022-08-03T16:34:39.181Z,26.80
2022-08-03T16:37:22.450Z,25.25
2022-08-03T16:39:53.654Z,26.15
2022-08-03T16:42:20.144Z,25.24
2022-08-03T16:44:47.191Z,26.77
2022-08-03T16:47:21.755Z,26.13
2022-08-03T16:49:55.864Z,26.08
2022-08-03T16:52:23.160Z,26.72
2022-08-03T16:54:53.135Z,26.95
2022-08-03T16:57:56.537Z,24.86
2022-08-03T17:00:10.096Z,26.16
2022-08-03T17:02:37.144Z,26.53
2022-08-03T17:05:04.346Z,25.48
2022-08-03T17:07:30.857Z,26.86
2022-08-03T17:09:57.627Z,26.20
2022-08-03T17:12:26.780Z,26.53
2022-08-03T17:14:54.037Z,26.67
2022-08-03T17:17:53.367Z,26.54
2022-08-03T17:20:21.486Z,26.79
2022-08-03T17:23:03.377Z,28.14
2022-08-03T17:26:02.612Z,27.67
2022-08-03T17:28:49.289Z,26.32
2022-08-03T17:31:31.142Z,26.86
2022-08-03T17:34:00.957Z,26.38
2022-08-03T17:36:47.637Z,26.81
2022-08-03T17:39:26.837Z,27.36
2022-08-03T17:42:05.184Z,26.30
2022-08-03T17:44:52.774Z,26.40
2022-08-03T17:47:19.281Z,26.82
2022-08-03T17:49:47.996Z,27.21
2022-08-03T17:52:48.194Z,26.95
2022-08-03T17:58:11.429Z,26.89
2022-08-03T18:00:59.686Z,27.50
2022-08-03T18:03:58.126Z,28.00
2022-08-03T18:06:28.710Z,27.96
2022-08-03T18:08:58.004Z,29.46
2022-08-03T18:11:35.754Z,29.40
2022-08-03T18:14:21.061Z,29.17
2022-08-03T18:17:00.416Z,29.42
2022-08-03T18:20:01.279Z,30.55
2022-08-03T18:22:15.386Z,31.28
2022-08-03T18:24:43.574Z,31.05
2022-08-03T18:27:14.464Z,31.78
2022-08-03T18:29:43.220Z,29.98
2022-08-03T18:32:13.502Z,32.56
2022-08-03T18:34:53.853Z,32.69
2022-08-03T18:37:25.139Z,34.08
2022-08-03T18:39:55.602Z,33.81
2022-08-03T18:45:56.318Z,34.63
2022-08-03T18:48:13.418Z,35.33
2022-08-03T18:51:09.573Z,35.96
2022-08-03T18:54:02.129Z,37.19
2022-08-03T18:56:37.722Z,37.80
2022-08-03T18:59:05.137Z,38.56
2022-08-03T19:01:59.708Z,39.09
2022-08-03T19:04:45.976Z,40.32
2022-08-03T19:07:17.462Z,38.57
2022-08-03T19:09:57.312Z,38.05
2022-08-03T19:12:39.582Z,39.46
2022-08-03T19:15:10.540Z,37.97
2022-08-03T19:17:50.159Z,38.14
2022-08-03T19:20:21.560Z,39.35
2022-08-03T19:22:50.941Z,41.00
2022-08-03T19:25:18.335Z,40.41
2022-08-03T19:27:46.892Z,40.60
2022-08-03T19:30:38.847Z,41.35
2022-08-03T19:33:10.042Z,41.98
2022-08-03T19:35:54.956Z,42.00
2022-08-03T19:38:29.497Z,42.50
2022-08-03T19:40:59.548Z,42.50
2022-08-03T19:43:53.958Z,40.87
2022-08-03T19:46:21.787Z,40.70
2022-08-03T19:48:59.043Z,40.32
2022-08-03T19:52:01.864Z,42.25
2022-08-03T19:54:29.947Z,42.25
2022-08-03T19:57:00.318Z,42.71
2022-08-03T19:59:29.483Z,42.53
2022-08-03T20:01:55.858Z,44.00
2022-08-03T20:04:22.368Z,44.13
2022-08-03T20:06:49.834Z,44.42
2022-08-03T20:09:17.944Z,43.26
2022-08-03T20:11:45.184Z,43.08
2022-08-03T20:14:13.275Z,44.45
2022-08-03T20:16:51.469Z,45.07
2022-08-03T20:19:18.375Z,45.70
2022-08-03T20:21:48.399Z,45.50
2022-08-03T20:24:36.658Z,46.36
2022-08-03T20:27:10.557Z,45.84
2022-08-03T20:30:04.890Z,44.85
2022-08-03T20:32:27.661Z,46.37
2022-08-03T20:34:54.203Z,44.80
2022-08-03T20:37:21.993Z,44.61
2022-08-03T20:39:49.368Z,46.07
2022-08-03T20:42:21.787Z,46.81
2022-08-03T20:45:04.490Z,48.17
2022-08-03T20:47:35.765Z,48.47
2022-08-03T20:50:04.572Z,48.55
2022-08-03T20:52:34.915Z,48.23
2022-08-03T20:55:12.850Z,48.85
2022-08-03T20:57:42.344Z,48.51
2022-08-03T21:00:17.670Z,49.33
2022-08-03T21:02:44.131Z,49.54
2022-08-03T21:05:10.771Z,49.30
2022-08-03T21:08:04.238Z,49.80
2022-08-03T21:10:32.188Z,49.53
2022-08-03T21:12:55.768Z,27.99
2022-08-03T21:12:58.870Z,33.98
2022-08-03T21:13:17.086Z,49.05
2022-08-03T21:16:13.225Z,49.51
2022-08-03T21:18:52.825Z,50.35
2022-08-03T21:21:22.189Z,51.20
2022-08-03T21:23:52.493Z,51.40
2022-08-03T21:26:21.463Z,51.28
2022-08-03T21:28:49.728Z,51.74
2022-08-03T21:31:24.478Z,51.76
2022-08-03T21:34:04.063Z,48.79
2022-08-03T21:36:34.205Z,49.75
2022-08-03T21:39:01.750Z,50.49
2022-08-03T21:41:30.819Z,50.18
2022-08-03T21:43:58.025Z,51.69
2022-08-03T21:46:26.603Z,51.86
2022-08-03T21:50:04.243Z,51.74
2022-08-03T21:51:49.801Z,51.36
2022-08-03T21:54:17.664Z,51.54
2022-08-03T21:56:47.644Z,51.05
2022-08-03T21:59:19.791Z,51.33
2022-08-03T22:01:48.755Z,51.46
2022-08-03T22:04:50.706Z,52.62
2022-08-03T22:07:07.757Z,53.21
2022-08-03T22:09:35.340Z,53.79
2022-08-03T22:12:01.834Z,55.57
2022-08-03T22:14:28.973Z,56.57
2022-08-03T22:16:56.202Z,56.22
2022-08-03T22:19:22.619Z,55.97
2022-08-03T22:21:49.680Z,57.47
2022-08-03T22:24:19.991Z,55.95
2022-08-03T22:27:09.893Z,55.82
2022-08-03T22:29:36.688Z,56.05
2022-08-03T22:32:03.444Z,56.06
2022-08-03T22:34:30.065Z,56.56
2022-08-03T22:37:01.845Z,56.69
2022-08-03T22:39:29.451Z,56.76
2022-08-03T22:41:59.264Z,57.34
2022-08-03T22:44:27.613Z,58.26
2022-08-03T22:46:55.266Z,58.66
2022-08-03T22:49:22.309Z,58.73
2022-08-03T22:51:51.425Z,58.98
2022-08-03T22:54:17.935Z,59.38
2022-08-03T22:56:46.612Z,60.22
2022-08-03T22:59:40.599Z,60.35
2022-08-03T23:02:20.448Z,61.51
2022-08-03T23:04:51.552Z,61.39
2022-08-03T23:07:27.259Z,62.59
2022-08-03T23:09:56.285Z,62.42
2022-08-03T23:12:23.616Z,62.69
2022-08-03T23:14:55.433Z,63.35
2022-08-03T23:17:23.549Z,63.70
2022-08-03T23:19:52.512Z,63.73
2022-08-03T23:22:29.715Z,63.68
2022-08-03T23:24:58.926Z,65.98
2022-08-03T23:27:27.093Z,67.60
2022-08-03T23:29:53.755Z,68.20
2022-08-03T23:32:20.886Z,68.55
2022-08-03T23:35:07.053Z,67.89
2022-08-03T23:37:34.669Z,68.80
2022-08-03T23:40:24.493Z,68.29
2022-08-03T23:42:51.438Z,67.59
2022-08-03T23:45:19.720Z,67.60
2022-08-03T23:47:47.758Z,67.01
2022-08-03T23:50:14.588Z,67.40
2022-08-03T23:52:57.481Z,67.85
2022-08-03T23:55:32.995Z,66.97
2022-08-03T23:58:19.776Z,66.21
